sensor_id;sensor_type;location;lat;lon;timestamp;P1;durP1;ratioP1;P2;durP2;ratioP2
31798;SDS011;18374;51.136;3.502;2022-12-07T00:01:43;6.30;;;3.85;;
31798;SDS011;18374;51.136;3.502;2022-12-07T00:04:13;6.40;;;3.28;;
31798;SDS011;18374;51.136;3.502;2022-12-07T00:06:44;5.93;;;3.30;;
31798;SDS011;18374;51.136;3.502;2022-12-07T00:09:17;6.57;;;3.15;;
31798;SDS011;18374;51.136;3.502;2022-12-07T00:11:47;5.43;;;3.08;;
31798;SDS011;18374;51.136;3.502;2022-12-07T00:14:17;5.07;;;3.33;;
31798;SDS011;18374;51.136;3.502;2022-12-07T00:16:45;6.07;;;3.13;;
31798;SDS011;18374;51.136;3.502;2022-12-07T00:19:17;5.88;;;3.47;;
31798;SDS011;18374;51.136;3.502;2022-12-07T00:21:45;6.85;;;3.33;;
31798;SDS011;18374;51.136;3.502;2022-12-07T00:24:13;5.70;;;3.20;;
31798;SDS011;18374;51.136;3.502;2022-12-07T00:26:41;7.32;;;3.72;;
31798;SDS011;18374;51.136;3.502;2022-12-07T00:29:18;10.77;;;4.55;;
31798;SDS011;18374;51.136;3.502;2022-12-07T00:31:48;13.77;;;5.03;;
31798;SDS011;18374;51.136;3.502;2022-12-07T00:34:18;8.18;;;4.53;;
31798;SDS011;18374;51.136;3.502;2022-12-07T00:36:47;10.63;;;4.88;;
31798;SDS011;18374;51.136;3.502;2022-12-07T00:39:17;14.10;;;5.30;;
31798;SDS011;18374;51.136;3.502;2022-12-07T00:41:44;14.23;;;5.68;;
31798;SDS011;18374;51.136;3.502;2022-12-07T00:44:12;14.48;;;5.88;;
31798;SDS011;18374;51.136;3.502;2022-12-07T00:46:40;9.90;;;5.25;;
31798;SDS011;18374;51.136;3.502;2022-12-07T00:49:07;13.75;;;4.90;;
31798;SDS011;18374;51.136;3.502;2022-12-07T00:51:35;10.27;;;4.60;;
31798;SDS011;18374;51.136;3.502;2022-12-07T00:54:03;9.32;;;4.60;;
31798;SDS011;18374;51.136;3.502;2022-12-07T00:56:30;6.55;;;4.18;;
31798;SDS011;18374;51.136;3.502;2022-12-07T00:58:59;12.68;;;4.78;;
31798;SDS011;18374;51.136;3.502;2022-12-07T01:01:34;6.50;;;4.28;;
31798;SDS011;18374;51.136;3.502;2022-12-07T01:04:03;7.70;;;4.38;;
31798;SDS011;18374;51.136;3.502;2022-12-07T01:06:32;9.98;;;3.83;;
31798;SDS011;18374;51.136;3.502;2022-12-07T01:09:00;9.82;;;3.72;;
31798;SDS011;18374;51.136;3.502;2022-12-07T01:11:28;6.45;;;3.50;;
31798;SDS011;18374;51.136;3.502;2022-12-07T01:13:57;6.13;;;2.78;;
31798;SDS011;18374;51.136;3.502;2022-12-07T01:16:27;6.68;;;3.17;;
31798;SDS011;18374;51.136;3.502;2022-12-07T01:18:57;6.63;;;2.88;;
31798;SDS011;18374;51.136;3.502;2022-12-07T01:21:28;8.98;;;2.88;;
31798;SDS011;18374;51.136;3.502;2022-12-07T01:24:02;7.35;;;2.90;;
31798;SDS011;18374;51.136;3.502;2022-12-07T01:26:33;8.63;;;2.85;;
31798;SDS011;18374;51.136;3.502;2022-12-07T01:29:00;9.90;;;2.17;;
31798;SDS011;18374;51.136;3.502;2022-12-07T01:31:28;6.90;;;2.08;;
31798;SDS011;18374;51.136;3.502;2022-12-07T01:33:57;7.63;;;1.98;;
31798;SDS011;18374;51.136;3.502;2022-12-07T01:36:27;5.35;;;2.30;;
31798;SDS011;18374;51.136;3.502;2022-12-07T01:38:58;7.35;;;2.38;;
31798;SDS011;18374;51.136;3.502;2022-12-07T01:41:30;6.05;;;1.83;;
31798;SDS011;18374;51.136;3.502;2022-12-07T01:44:09;4.20;;;1.70;;
31798;SDS011;18374;51.136;3.502;2022-12-07T01:46:54;4.95;;;1.50;;
31798;SDS011;18374;51.136;3.502;2022-12-07T01:54:47;4.20;;;1.95;;
31798;SDS011;18374;51.136;3.502;2022-12-07T01:57:20;6.90;;;1.60;;
31798;SDS011;18374;51.136;3.502;2022-12-07T01:59:49;6.85;;;1.52;;
31798;SDS011;18374;51.136;3.502;2022-12-07T02:02:30;3.08;;;1.70;;
31798;SDS011;18374;51.136;3.502;2022-12-07T02:05:03;3.53;;;1.70;;
31798;SDS011;18374;51.136;3.502;2022-12-07T02:07:34;4.20;;;1.80;;
31798;SDS011;18374;51.136;3.502;2022-12-07T02:12:56;6.10;;;1.63;;
31798;SDS011;18374;51.136;3.502;2022-12-07T02:21:15;1.90;;;1.45;;
31798;SDS011;18374;51.136;3.502;2022-12-07T02:27:07;1.40;;;1.13;;
31798;SDS011;18374;51.136;3.502;2022-12-07T02:29:49;4.97;;;1.17;;
31798;SDS011;18374;51.136;3.502;2022-12-07T02:32:57;3.10;;;2.08;;
31798;SDS011;18374;51.136;3.502;2022-12-07T02:41:29;3.55;;;1.23;;
31798;SDS011;18374;51.136;3.502;2022-12-07T02:44:04;4.53;;;1.23;;
31798;SDS011;18374;51.136;3.502;2022-12-07T02:46:41;3.92;;;0.90;;
31798;SDS011;18374;51.136;3.502;2022-12-07T02:49:12;1.38;;;0.73;;
31798;SDS011;18374;51.136;3.502;2022-12-07T02:51:44;2.22;;;0.70;;
31798;SDS011;18374;51.136;3.502;2022-12-07T02:54:14;1.63;;;1.20;;
31798;SDS011;18374;51.136;3.502;2022-12-07T02:59:21;1.85;;;0.82;;
31798;SDS011;18374;51.136;3.502;2022-12-07T03:02:28;1.25;;;0.82;;
31798;SDS011;18374;51.136;3.502;2022-12-07T03:08:20;5.47;;;1.00;;
31798;SDS011;18374;51.136;3.502;2022-12-07T03:11:22;3.53;;;1.17;;
31798;SDS011;18374;51.136;3.502;2022-12-07T03:14:15;2.05;;;0.88;;
31798;SDS011;18374;51.136;3.502;2022-12-07T03:17:24;1.77;;;0.68;;
31798;SDS011;18374;51.136;3.502;2022-12-07T03:19:48;1.95;;;0.93;;
31798;SDS011;18374;51.136;3.502;2022-12-07T03:22:18;2.47;;;0.80;;
31798;SDS011;18374;51.136;3.502;2022-12-07T03:24:49;1.95;;;0.80;;
31798;SDS011;18374;51.136;3.502;2022-12-07T03:27:26;5.25;;;1.08;;
31798;SDS011;18374;51.136;3.502;2022-12-07T03:30:17;2.22;;;1.00;;
31798;SDS011;18374;51.136;3.502;2022-12-07T03:35:27;2.50;;;0.85;;
31798;SDS011;18374;51.136;3.502;2022-12-07T03:40:52;4.15;;;1.30;;
31798;SDS011;18374;51.136;3.502;2022-12-07T03:43:25;2.88;;;1.10;;
31798;SDS011;18374;51.136;3.502;2022-12-07T03:48:40;6.10;;;1.15;;
31798;SDS011;18374;51.136;3.502;2022-12-07T03:54:34;2.10;;;0.90;;
31798;SDS011;18374;51.136;3.502;2022-12-07T03:57:10;2.72;;;1.05;;
31798;SDS011;18374;51.136;3.502;2022-12-07T03:59:40;3.97;;;1.42;;
31798;SDS011;18374;51.136;3.502;2022-12-07T04:02:08;2.10;;;1.02;;
31798;SDS011;18374;51.136;3.502;2022-12-07T04:04:40;4.85;;;1.50;;
31798;SDS011;18374;51.136;3.502;2022-12-07T04:07:10;2.95;;;1.23;;
31798;SDS011;18374;51.136;3.502;2022-12-07T04:09:38;3.13;;;1.70;;
31798;SDS011;18374;51.136;3.502;2022-12-07T04:12:06;3.65;;;1.67;;
31798;SDS011;18374;51.136;3.502;2022-12-07T04:14:34;4.60;;;1.63;;
31798;SDS011;18374;51.136;3.502;2022-12-07T04:17:01;4.15;;;1.60;;
31798;SDS011;18374;51.136;3.502;2022-12-07T04:19:30;4.55;;;2.20;;
31798;SDS011;18374;51.136;3.502;2022-12-07T04:22:00;7.28;;;2.40;;
31798;SDS011;18374;51.136;3.502;2022-12-07T04:24:30;4.78;;;1.98;;
31798;SDS011;18374;51.136;3.502;2022-12-07T04:26:58;6.82;;;1.67;;
31798;SDS011;18374;51.136;3.502;2022-12-07T04:29:26;3.92;;;1.60;;
31798;SDS011;18374;51.136;3.502;2022-12-07T04:31:54;4.13;;;1.58;;
31798;SDS011;18374;51.136;3.502;2022-12-07T04:34:22;3.17;;;1.65;;
31798;SDS011;18374;51.136;3.502;2022-12-07T04:36:50;5.70;;;1.65;;
31798;SDS011;18374;51.136;3.502;2022-12-07T04:39:22;4.95;;;1.73;;
31798;SDS011;18374;51.136;3.502;2022-12-07T04:41:55;4.60;;;1.42;;
31798;SDS011;18374;51.136;3.502;2022-12-07T04:44:24;4.13;;;1.77;;
31798;SDS011;18374;51.136;3.502;2022-12-07T04:46:53;3.13;;;1.30;;
31798;SDS011;18374;51.136;3.502;2022-12-07T04:49:22;3.42;;;1.40;;
31798;SDS011;18374;51.136;3.502;2022-12-07T04:51:51;6.38;;;1.70;;
31798;SDS011;18374;51.136;3.502;2022-12-07T04:54:19;6.25;;;1.30;;
31798;SDS011;18374;51.136;3.502;2022-12-07T04:56:47;1.83;;;1.40;;
31798;SDS011;18374;51.136;3.502;2022-12-07T04:59:16;3.03;;;1.40;;
31798;SDS011;18374;51.136;3.502;2022-12-07T05:01:44;3.33;;;1.35;;
31798;SDS011;18374;51.136;3.502;2022-12-07T05:04:12;3.95;;;1.55;;
31798;SDS011;18374;51.136;3.502;2022-12-07T05:06:40;4.57;;;1.48;;
31798;SDS011;18374;51.136;3.502;2022-12-07T05:09:08;4.75;;;1.25;;
31798;SDS011;18374;51.136;3.502;2022-12-07T05:11:36;2.83;;;1.00;;
31798;SDS011;18374;51.136;3.502;2022-12-07T05:14:17;2.10;;;1.25;;
31798;SDS011;18374;51.136;3.502;2022-12-07T05:16:47;2.28;;;1.30;;
31798;SDS011;18374;51.136;3.502;2022-12-07T05:19:17;5.72;;;1.63;;
31798;SDS011;18374;51.136;3.502;2022-12-07T05:21:46;2.28;;;1.20;;
31798;SDS011;18374;51.136;3.502;2022-12-07T05:24:14;3.05;;;1.48;;
31798;SDS011;18374;51.136;3.502;2022-12-07T05:26:44;2.88;;;1.80;;
31798;SDS011;18374;51.136;3.502;2022-12-07T05:29:12;3.67;;;1.90;;
31798;SDS011;18374;51.136;3.502;2022-12-07T05:31:42;4.68;;;1.70;;
31798;SDS011;18374;51.136;3.502;2022-12-07T05:34:12;5.32;;;1.88;;
31798;SDS011;18374;51.136;3.502;2022-12-07T05:36:40;4.65;;;1.83;;
31798;SDS011;18374;51.136;3.502;2022-12-07T05:39:08;4.47;;;2.08;;
31798;SDS011;18374;51.136;3.502;2022-12-07T05:41:35;9.00;;;1.75;;
31798;SDS011;18374;51.136;3.502;2022-12-07T05:44:22;4.07;;;2.08;;
31798;SDS011;18374;51.136;3.502;2022-12-07T05:46:49;2.45;;;1.58;;
31798;SDS011;18374;51.136;3.502;2022-12-07T05:49:17;5.43;;;2.40;;
31798;SDS011;18374;51.136;3.502;2022-12-07T05:51:45;4.93;;;2.65;;
31798;SDS011;18374;51.136;3.502;2022-12-07T05:54:12;7.30;;;2.42;;
31798;SDS011;18374;51.136;3.502;2022-12-07T05:56:40;6.18;;;2.90;;
31798;SDS011;18374;51.136;3.502;2022-12-07T05:59:08;3.45;;;2.10;;
31798;SDS011;18374;51.136;3.502;2022-12-07T06:02:01;3.40;;;2.20;;
31798;SDS011;18374;51.136;3.502;2022-12-07T06:04:34;3.47;;;2.47;;
31798;SDS011;18374;51.136;3.502;2022-12-07T06:07:05;2.85;;;1.92;;
31798;SDS011;18374;51.136;3.502;2022-12-07T06:09:33;3.13;;;2.17;;
31798;SDS011;18374;51.136;3.502;2022-12-07T06:12:02;4.50;;;2.25;;
31798;SDS011;18374;51.136;3.502;2022-12-07T06:14:50;4.03;;;2.80;;
31798;SDS011;18374;51.136;3.502;2022-12-07T06:17:18;4.40;;;2.17;;
31798;SDS011;18374;51.136;3.502;2022-12-07T06:19:46;7.47;;;2.08;;
31798;SDS011;18374;51.136;3.502;2022-12-07T06:22:13;6.03;;;1.40;;
31798;SDS011;18374;51.136;3.502;2022-12-07T06:24:43;12.70;;;1.88;;
31798;SDS011;18374;51.136;3.502;2022-12-07T06:27:10;7.25;;;1.40;;
31798;SDS011;18374;51.136;3.502;2022-12-07T06:29:38;9.25;;;1.13;;
31798;SDS011;18374;51.136;3.502;2022-12-07T06:32:06;7.20;;;1.50;;
31798;SDS011;18374;51.136;3.502;2022-12-07T06:34:34;6.53;;;1.05;;
31798;SDS011;18374;51.136;3.502;2022-12-07T06:37:01;6.68;;;1.30;;
31798;SDS011;18374;51.136;3.502;2022-12-07T06:39:29;4.20;;;1.25;;
31798;SDS011;18374;51.136;3.502;2022-12-07T06:41:58;6.78;;;1.33;;
31798;SDS011;18374;51.136;3.502;2022-12-07T06:44:26;5.32;;;0.77;;
31798;SDS011;18374;51.136;3.502;2022-12-07T06:46:53;5.95;;;0.95;;
31798;SDS011;18374;51.136;3.502;2022-12-07T06:49:41;6.55;;;1.02;;
31798;SDS011;18374;51.136;3.502;2022-12-07T06:52:09;4.15;;;0.82;;
31798;SDS011;18374;51.136;3.502;2022-12-07T06:54:36;2.15;;;1.02;;
31798;SDS011;18374;51.136;3.502;2022-12-07T06:57:04;3.33;;;1.00;;
31798;SDS011;18374;51.136;3.502;2022-12-07T06:59:31;5.32;;;2.15;;
31798;SDS011;18374;51.136;3.502;2022-12-07T07:01:59;9.93;;;1.60;;
31798;SDS011;18374;51.136;3.502;2022-12-07T07:04:27;7.60;;;2.33;;
31798;SDS011;18374;51.136;3.502;2022-12-07T07:06:55;11.90;;;3.65;;
31798;SDS011;18374;51.136;3.502;2022-12-07T07:09:26;9.77;;;2.80;;
31798;SDS011;18374;51.136;3.502;2022-12-07T07:11:54;7.10;;;2.88;;
31798;SDS011;18374;51.136;3.502;2022-12-07T07:14:22;11.57;;;2.25;;
31798;SDS011;18374;51.136;3.502;2022-12-07T07:16:49;7.88;;;2.50;;
31798;SDS011;18374;51.136;3.502;2022-12-07T07:19:17;6.65;;;2.45;;
31798;SDS011;18374;51.136;3.502;2022-12-07T07:21:45;4.82;;;1.77;;
31798;SDS011;18374;51.136;3.502;2022-12-07T07:24:12;6.15;;;1.75;;
31798;SDS011;18374;51.136;3.502;2022-12-07T07:26:40;6.88;;;1.27;;
31798;SDS011;18374;51.136;3.502;2022-12-07T07:29:08;5.45;;;1.88;;
31798;SDS011;18374;51.136;3.502;2022-12-07T07:31:35;4.07;;;1.10;;
31798;SDS011;18374;51.136;3.502;2022-12-07T07:34:04;2.72;;;0.90;;
31798;SDS011;18374;51.136;3.502;2022-12-07T07:36:32;5.93;;;1.40;;
31798;SDS011;18374;51.136;3.502;2022-12-07T07:39:00;6.93;;;1.75;;
31798;SDS011;18374;51.136;3.502;2022-12-07T07:41:27;4.95;;;2.20;;
31798;SDS011;18374;51.136;3.502;2022-12-07T07:43:55;6.80;;;2.60;;
31798;SDS011;18374;51.136;3.502;2022-12-07T07:46:22;9.68;;;5.75;;
31798;SDS011;18374;51.136;3.502;2022-12-07T07:48:50;18.67;;;8.30;;
31798;SDS011;18374;51.136;3.502;2022-12-07T07:51:18;12.95;;;8.07;;
31798;SDS011;18374;51.136;3.502;2022-12-07T07:53:46;13.95;;;6.72;;
31798;SDS011;18374;51.136;3.502;2022-12-07T07:56:13;16.20;;;6.70;;
31798;SDS011;18374;51.136;3.502;2022-12-07T07:58:41;9.65;;;6.07;;
31798;SDS011;18374;51.136;3.502;2022-12-07T08:01:08;12.95;;;5.75;;
31798;SDS011;18374;51.136;3.502;2022-12-07T08:03:36;17.02;;;5.72;;
31798;SDS011;18374;51.136;3.502;2022-12-07T08:06:04;13.48;;;5.30;;
31798;SDS011;18374;51.136;3.502;2022-12-07T08:08:32;6.43;;;4.38;;
31798;SDS011;18374;51.136;3.502;2022-12-07T08:11:00;7.97;;;4.30;;
31798;SDS011;18374;51.136;3.502;2022-12-07T08:13:28;7.85;;;4.93;;
31798;SDS011;18374;51.136;3.502;2022-12-07T08:15:57;10.57;;;4.00;;
31798;SDS011;18374;51.136;3.502;2022-12-07T08:18:26;7.25;;;4.22;;
31798;SDS011;18374;51.136;3.502;2022-12-07T08:20:58;10.45;;;4.25;;
31798;SDS011;18374;51.136;3.502;2022-12-07T08:23:28;7.40;;;4.25;;
31798;SDS011;18374;51.136;3.502;2022-12-07T08:26:06;10.52;;;4.30;;
31798;SDS011;18374;51.136;3.502;2022-12-07T08:28:37;8.45;;;4.43;;
31798;SDS011;18374;51.136;3.502;2022-12-07T08:31:07;12.00;;;6.07;;
31798;SDS011;18374;51.136;3.502;2022-12-07T08:33:39;9.70;;;4.95;;
31798;SDS011;18374;51.136;3.502;2022-12-07T08:36:08;11.77;;;5.00;;
31798;SDS011;18374;51.136;3.502;2022-12-07T08:38:38;9.25;;;4.63;;
31798;SDS011;18374;51.136;3.502;2022-12-07T08:41:22;15.68;;;5.13;;
31798;SDS011;18374;51.136;3.502;2022-12-07T08:43:51;12.77;;;6.55;;
31798;SDS011;18374;51.136;3.502;2022-12-07T08:46:23;10.10;;;4.95;;
31798;SDS011;18374;51.136;3.502;2022-12-07T08:51:40;14.90;;;4.80;;
31798;SDS011;18374;51.136;3.502;2022-12-07T08:54:09;10.60;;;4.80;;
31798;SDS011;18374;51.136;3.502;2022-12-07T08:56:41;11.32;;;5.18;;
31798;SDS011;18374;51.136;3.502;2022-12-07T08:59:10;9.75;;;5.20;;
31798;SDS011;18374;51.136;3.502;2022-12-07T09:01:42;22.23;;;11.30;;
31798;SDS011;18374;51.136;3.502;2022-12-07T09:04:10;11.85;;;5.25;;
31798;SDS011;18374;51.136;3.502;2022-12-07T09:06:38;16.95;;;5.85;;
31798;SDS011;18374;51.136;3.502;2022-12-07T09:09:06;15.52;;;4.72;;
31798;SDS011;18374;51.136;3.502;2022-12-07T09:11:34;12.23;;;4.90;;
31798;SDS011;18374;51.136;3.502;2022-12-07T09:14:02;10.85;;;5.07;;
31798;SDS011;18374;51.136;3.502;2022-12-07T09:16:30;11.48;;;4.63;;
31798;SDS011;18374;51.136;3.502;2022-12-07T09:18:58;10.80;;;4.65;;
31798;SDS011;18374;51.136;3.502;2022-12-07T09:21:25;11.73;;;4.93;;
31798;SDS011;18374;51.136;3.502;2022-12-07T09:23:53;9.10;;;4.88;;
31798;SDS011;18374;51.136;3.502;2022-12-07T09:26:21;12.50;;;4.70;;
31798;SDS011;18374;51.136;3.502;2022-12-07T09:28:49;8.93;;;5.05;;
31798;SDS011;18374;51.136;3.502;2022-12-07T09:31:16;12.32;;;4.63;;
31798;SDS011;18374;51.136;3.502;2022-12-07T09:33:57;10.30;;;4.90;;
31798;SDS011;18374;51.136;3.502;2022-12-07T09:36:27;7.88;;;4.85;;
31798;SDS011;18374;51.136;3.502;2022-12-07T09:38:56;8.25;;;4.00;;
31798;SDS011;18374;51.136;3.502;2022-12-07T09:41:24;7.10;;;3.95;;
31798;SDS011;18374;51.136;3.502;2022-12-07T09:43:55;10.63;;;4.90;;
31798;SDS011;18374;51.136;3.502;2022-12-07T09:46:34;11.65;;;5.70;;
31798;SDS011;18374;51.136;3.502;2022-12-07T09:49:09;8.23;;;4.43;;
31798;SDS011;18374;51.136;3.502;2022-12-07T09:51:43;7.50;;;3.65;;
31798;SDS011;18374;51.136;3.502;2022-12-07T09:54:12;12.30;;;4.45;;
31798;SDS011;18374;51.136;3.502;2022-12-07T09:56:43;10.07;;;4.03;;
31798;SDS011;18374;51.136;3.502;2022-12-07T09:59:17;11.90;;;4.38;;
31798;SDS011;18374;51.136;3.502;2022-12-07T10:01:47;10.02;;;4.93;;
31798;SDS011;18374;51.136;3.502;2022-12-07T10:04:18;10.77;;;5.55;;
31798;SDS011;18374;51.136;3.502;2022-12-07T10:06:52;7.28;;;4.75;;
31798;SDS011;18374;51.136;3.502;2022-12-07T10:09:20;7.32;;;4.30;;
31798;SDS011;18374;51.136;3.502;2022-12-07T10:12:05;11.13;;;4.15;;
31798;SDS011;18374;51.136;3.502;2022-12-07T10:14:40;11.00;;;4.45;;
31798;SDS011;18374;51.136;3.502;2022-12-07T10:17:40;9.80;;;3.95;;
31798;SDS011;18374;51.136;3.502;2022-12-07T10:20:23;15.85;;;6.18;;
31798;SDS011;18374;51.136;3.502;2022-12-07T10:22:54;17.20;;;6.10;;
31798;SDS011;18374;51.136;3.502;2022-12-07T10:25:41;11.75;;;5.10;;
31798;SDS011;18374;51.136;3.502;2022-12-07T10:28:18;14.73;;;3.60;;
31798;SDS011;18374;51.136;3.502;2022-12-07T10:30:53;12.07;;;3.00;;
31798;SDS011;18374;51.136;3.502;2022-12-07T10:33:36;13.10;;;3.33;;
31798;SDS011;18374;51.136;3.502;2022-12-07T10:36:25;6.38;;;2.40;;
31798;SDS011;18374;51.136;3.502;2022-12-07T10:39:02;3.33;;;1.80;;
31798;SDS011;18374;51.136;3.502;2022-12-07T10:41:52;3.38;;;1.90;;
31798;SDS011;18374;51.136;3.502;2022-12-07T10:44:29;3.80;;;1.75;;
31798;SDS011;18374;51.136;3.502;2022-12-07T10:56:28;2.33;;;1.15;;
31798;SDS011;18374;51.136;3.502;2022-12-07T11:10:36;6.85;;;1.25;;
31798;SDS011;18374;51.136;3.502;2022-12-07T11:21:58;7.85;;;2.30;;
31798;SDS011;18374;51.136;3.502;2022-12-07T11:27:32;4.20;;;1.83;;
31798;SDS011;18374;51.136;3.502;2022-12-07T11:30:15;2.13;;;1.05;;
31798;SDS011;18374;51.136;3.502;2022-12-07T11:33:04;5.22;;;1.10;;
31798;SDS011;18374;51.136;3.502;2022-12-07T11:35:50;4.95;;;1.30;;
31798;SDS011;18374;51.136;3.502;2022-12-07T11:38:28;7.32;;;1.80;;
31798;SDS011;18374;51.136;3.502;2022-12-07T11:41:08;4.57;;;1.48;;
31798;SDS011;18374;51.136;3.502;2022-12-07T11:46:24;8.05;;;1.98;;
31798;SDS011;18374;51.136;3.502;2022-12-07T11:52:01;7.07;;;1.73;;
31798;SDS011;18374;51.136;3.502;2022-12-07T11:54:35;5.15;;;1.08;;
31798;SDS011;18374;51.136;3.502;2022-12-07T11:57:10;5.22;;;1.13;;
31798;SDS011;18374;51.136;3.502;2022-12-07T11:59:50;5.25;;;1.00;;
31798;SDS011;18374;51.136;3.502;2022-12-07T12:02:32;4.50;;;1.30;;
31798;SDS011;18374;51.136;3.502;2022-12-07T12:08:10;4.40;;;1.23;;
31798;SDS011;18374;51.136;3.502;2022-12-07T12:11:45;6.53;;;0.98;;
31798;SDS011;18374;51.136;3.502;2022-12-07T12:26:22;5.95;;;0.93;;
31798;SDS011;18374;51.136;3.502;2022-12-07T12:31:39;1.33;;;0.75;;
31798;SDS011;18374;51.136;3.502;2022-12-07T12:37:44;5.70;;;0.75;;
31798;SDS011;18374;51.136;3.502;2022-12-07T12:45:21;9.52;;;1.42;;
31798;SDS011;18374;51.136;3.502;2022-12-07T12:48:03;8.25;;;1.30;;
31798;SDS011;18374;51.136;3.502;2022-12-07T12:54:05;6.18;;;1.10;;
31798;SDS011;18374;51.136;3.502;2022-12-07T12:56:50;2.65;;;0.90;;
31798;SDS011;18374;51.136;3.502;2022-12-07T13:02:21;3.72;;;0.88;;
31798;SDS011;18374;51.136;3.502;2022-12-07T13:15:31;4.70;;;0.95;;
31798;SDS011;18374;51.136;3.502;2022-12-07T13:18:00;3.85;;;0.60;;
31798;SDS011;18374;51.136;3.502;2022-12-07T13:20:42;2.90;;;1.08;;
31798;SDS011;18374;51.136;3.502;2022-12-07T13:26:35;3.45;;;0.47;;
31798;SDS011;18374;51.136;3.502;2022-12-07T13:31:53;5.53;;;0.47;;
31798;SDS011;18374;51.136;3.502;2022-12-07T13:37:04;1.42;;;0.40;;
31798;SDS011;18374;51.136;3.502;2022-12-07T13:39:45;5.43;;;0.40;;
31798;SDS011;18374;51.136;3.502;2022-12-07T13:42:24;2.85;;;0.60;;
31798;SDS011;18374;51.136;3.502;2022-12-07T13:44:54;6.65;;;0.80;;
31798;SDS011;18374;51.136;3.502;2022-12-07T13:47:30;6.22;;;0.70;;
31798;SDS011;18374;51.136;3.502;2022-12-07T13:50:15;5.72;;;0.75;;
31798;SDS011;18374;51.136;3.502;2022-12-07T13:52:55;4.00;;;0.60;;
31798;SDS011;18374;51.136;3.502;2022-12-07T13:55:24;13.75;;;1.02;;
31798;SDS011;18374;51.136;3.502;2022-12-07T13:57:53;4.22;;;0.93;;
31798;SDS011;18374;51.136;3.502;2022-12-07T14:00:23;2.30;;;0.70;;
31798;SDS011;18374;51.136;3.502;2022-12-07T14:05:48;4.43;;;1.25;;
31798;SDS011;18374;51.136;3.502;2022-12-07T14:09:08;4.38;;;1.20;;
31798;SDS011;18374;51.136;3.502;2022-12-07T14:11:45;1.85;;;0.80;;
31798;SDS011;18374;51.136;3.502;2022-12-07T14:14:17;7.72;;;0.80;;
31798;SDS011;18374;51.136;3.502;2022-12-07T14:16:59;4.75;;;1.00;;
31798;SDS011;18374;51.136;3.502;2022-12-07T14:19:55;5.55;;;0.82;;
31798;SDS011;18374;51.136;3.502;2022-12-07T14:22:27;2.25;;;0.90;;
31798;SDS011;18374;51.136;3.502;2022-12-07T14:27:47;5.10;;;0.90;;
31798;SDS011;18374;51.136;3.502;2022-12-07T14:30:27;4.18;;;1.05;;
31798;SDS011;18374;51.136;3.502;2022-12-07T14:33:03;4.88;;;0.90;;
31798;SDS011;18374;51.136;3.502;2022-12-07T14:35:32;4.80;;;1.00;;
31798;SDS011;18374;51.136;3.502;2022-12-07T14:38:00;5.30;;;1.10;;
31798;SDS011;18374;51.136;3.502;2022-12-07T14:40:28;2.85;;;0.82;;
31798;SDS011;18374;51.136;3.502;2022-12-07T14:43:00;5.10;;;0.90;;
31798;SDS011;18374;51.136;3.502;2022-12-07T14:45:31;4.05;;;1.40;;
31798;SDS011;18374;51.136;3.502;2022-12-07T14:47:59;2.83;;;0.65;;
31798;SDS011;18374;51.136;3.502;2022-12-07T14:50:51;7.38;;;1.13;;
31798;SDS011;18374;51.136;3.502;2022-12-07T14:53:44;4.28;;;1.15;;
31798;SDS011;18374;51.136;3.502;2022-12-07T14:56:23;4.72;;;1.08;;
31798;SDS011;18374;51.136;3.502;2022-12-07T14:58:52;2.88;;;1.02;;
31798;SDS011;18374;51.136;3.502;2022-12-07T15:01:19;5.57;;;1.13;;
31798;SDS011;18374;51.136;3.502;2022-12-07T15:03:47;5.03;;;1.33;;
31798;SDS011;18374;51.136;3.502;2022-12-07T15:06:16;3.03;;;1.90;;
31798;SDS011;18374;51.136;3.502;2022-12-07T15:08:45;7.80;;;2.95;;
31798;SDS011;18374;51.136;3.502;2022-12-07T15:11:13;3.60;;;1.10;;
31798;SDS011;18374;51.136;3.502;2022-12-07T15:13:42;1.63;;;0.80;;
31798;SDS011;18374;51.136;3.502;2022-12-07T15:19:13;5.60;;;1.00;;
31798;SDS011;18374;51.136;3.502;2022-12-07T15:21:59;4.78;;;1.10;;
31798;SDS011;18374;51.136;3.502;2022-12-07T15:24:26;2.15;;;1.23;;
31798;SDS011;18374;51.136;3.502;2022-12-07T15:26:54;3.35;;;1.65;;
31798;SDS011;18374;51.136;3.502;2022-12-07T15:29:22;2.25;;;1.38;;
31798;SDS011;18374;51.136;3.502;2022-12-07T15:31:50;5.68;;;1.42;;
31798;SDS011;18374;51.136;3.502;2022-12-07T15:34:26;2.53;;;1.73;;
31798;SDS011;18374;51.136;3.502;2022-12-07T15:37:03;3.28;;;1.58;;
31798;SDS011;18374;51.136;3.502;2022-12-07T15:39:31;1.80;;;1.42;;
31798;SDS011;18374;51.136;3.502;2022-12-07T15:41:59;2.42;;;1.20;;
31798;SDS011;18374;51.136;3.502;2022-12-07T15:44:26;5.25;;;1.52;;
31798;SDS011;18374;51.136;3.502;2022-12-07T15:47:13;4.40;;;1.50;;
31798;SDS011;18374;51.136;3.502;2022-12-07T15:49:41;3.85;;;1.85;;
31798;SDS011;18374;51.136;3.502;2022-12-07T15:52:08;5.03;;;2.38;;
31798;SDS011;18374;51.136;3.502;2022-12-07T15:54:36;7.78;;;2.08;;
31798;SDS011;18374;51.136;3.502;2022-12-07T15:57:04;5.28;;;1.90;;
31798;SDS011;18374;51.136;3.502;2022-12-07T15:59:32;4.82;;;1.88;;
31798;SDS011;18374;51.136;3.502;2022-12-07T16:01:59;5.82;;;1.70;;
31798;SDS011;18374;51.136;3.502;2022-12-07T16:04:27;5.63;;;2.30;;
31798;SDS011;18374;51.136;3.502;2022-12-07T16:06:58;6.88;;;2.20;;
31798;SDS011;18374;51.136;3.502;2022-12-07T16:09:26;6.93;;;2.70;;
31798;SDS011;18374;51.136;3.502;2022-12-07T16:11:54;6.82;;;2.50;;
31798;SDS011;18374;51.136;3.502;2022-12-07T16:14:21;5.60;;;2.85;;
31798;SDS011;18374;51.136;3.502;2022-12-07T16:16:49;8.43;;;3.40;;
31798;SDS011;18374;51.136;3.502;2022-12-07T16:19:17;11.15;;;3.47;;
31798;SDS011;18374;51.136;3.502;2022-12-07T16:21:45;8.35;;;3.60;;
31798;SDS011;18374;51.136;3.502;2022-12-07T16:24:12;8.05;;;3.20;;
31798;SDS011;18374;51.136;3.502;2022-12-07T16:26:42;9.02;;;3.45;;
31798;SDS011;18374;51.136;3.502;2022-12-07T16:29:17;8.73;;;3.22;;
31798;SDS011;18374;51.136;3.502;2022-12-07T16:31:47;6.88;;;3.38;;
31798;SDS011;18374;51.136;3.502;2022-12-07T16:34:16;8.80;;;3.88;;
31798;SDS011;18374;51.136;3.502;2022-12-07T16:36:44;6.95;;;3.75;;
31798;SDS011;18374;51.136;3.502;2022-12-07T16:39:32;10.88;;;4.05;;
31798;SDS011;18374;51.136;3.502;2022-12-07T16:42:01;10.48;;;4.43;;
31798;SDS011;18374;51.136;3.502;2022-12-07T16:44:29;13.02;;;5.22;;
31798;SDS011;18374;51.136;3.502;2022-12-07T16:46:58;8.38;;;4.80;;
31798;SDS011;18374;51.136;3.502;2022-12-07T16:49:27;13.32;;;5.47;;
31798;SDS011;18374;51.136;3.502;2022-12-07T16:51:55;12.20;;;5.03;;
31798;SDS011;18374;51.136;3.502;2022-12-07T16:54:44;10.75;;;4.78;;
31798;SDS011;18374;51.136;3.502;2022-12-07T16:57:11;10.30;;;4.40;;
31798;SDS011;18374;51.136;3.502;2022-12-07T16:59:48;8.20;;;3.85;;
31798;SDS011;18374;51.136;3.502;2022-12-07T17:02:15;6.35;;;3.40;;
31798;SDS011;18374;51.136;3.502;2022-12-07T17:04:43;13.60;;;4.57;;
31798;SDS011;18374;51.136;3.502;2022-12-07T17:07:11;8.50;;;4.97;;
31798;SDS011;18374;51.136;3.502;2022-12-07T17:09:39;13.30;;;4.30;;
31798;SDS011;18374;51.136;3.502;2022-12-07T17:12:06;8.52;;;4.20;;
31798;SDS011;18374;51.136;3.502;2022-12-07T17:14:35;9.70;;;4.13;;
31798;SDS011;18374;51.136;3.502;2022-12-07T17:17:23;12.43;;;5.60;;
31798;SDS011;18374;51.136;3.502;2022-12-07T17:19:50;10.30;;;4.53;;
31798;SDS011;18374;51.136;3.502;2022-12-07T17:22:18;14.27;;;5.25;;
31798;SDS011;18374;51.136;3.502;2022-12-07T17:24:45;10.18;;;4.35;;
31798;SDS011;18374;51.136;3.502;2022-12-07T17:27:13;60.97;;;15.65;;
31798;SDS011;18374;51.136;3.502;2022-12-07T17:29:41;46.55;;;14.05;;
31798;SDS011;18374;51.136;3.502;2022-12-07T17:32:08;26.88;;;9.13;;
31798;SDS011;18374;51.136;3.502;2022-12-07T17:34:36;20.05;;;7.28;;
31798;SDS011;18374;51.136;3.502;2022-12-07T17:37:04;15.60;;;6.18;;
31798;SDS011;18374;51.136;3.502;2022-12-07T17:39:32;12.13;;;5.45;;